Time;durP1;ratioP1;P1;durP2;ratioP2;P2;SDS_P1;SDS_P2;PMS_P1;PMS_P2;Temp;Humidity;BMP_temperature;BMP_pressure;BME280_temperature;BME280_humidity;BME280_pressure;Samples;Min_cycle;Max_cycle;Signal;HPM_P1;HPM_P2
2022/09/21 00:01:25;;;;;;;;;;;13.80;99.90;;;;;;5064069;28;19916;-68
2022/09/21 00:03:52;;;;;;;;;;;13.70;99.90;;;;;;5064836;28;20289;-68
2022/09/21 00:06:19;;;;;;;;;;;13.70;99.90;;;;;;5064910;28;20394;-70
2022/09/21 00:08:45;;;;;;;;;;;13.70;99.90;;;;;;5065448;28;20007;-69
2022/09/21 00:11:12;;;;;;;;;;;13.80;99.90;;;;;;5061107;28;19919;-69
2022/09/21 00:13:38;;;;;;;;;;;13.80;99.90;;;;;;5065481;28;19958;-70
2022/09/21 00:16:05;;;;;;;;;;;13.90;99.90;;;;;;5060169;28;19921;-69
2022/09/21 00:18:31;;;;;;;;;;;13.90;99.90;;;;;;5068585;28;20298;-69
2022/09/21 00:20:57;;;;;;;;;;;13.90;99.90;;;;;;5063772;28;19913;-69
2022/09/21 00:23:23;;;;;;;;;;;13.90;99.90;;;;;;5065444;28;19912;-70
2022/09/21 00:25:49;;;;;;;;;;;13.90;99.90;;;;;;5065279;28;20398;-69
2022/09/21 00:28:14;;;;;;;;;;;13.90;99.90;;;;;;5066892;28;19927;-68
2022/09/21 00:30:40;;;;;;;;;;;13.90;99.90;;;;;;5064775;28;19912;-68
2022/09/21 00:33:05;;;;;;;;;;;13.90;99.90;;;;;;5068355;28;19916;-69
2022/09/21 00:35:32;;;;;;;;;;;14.00;99.90;;;;;;5064739;28;19921;-69
2022/09/21 00:38:01;;;;;;;;;;;14.00;99.90;;;;;;5066042;28;20379;-69
2022/09/21 00:40:27;;;;;;;;;;;14.00;99.90;;;;;;5062367;28;19932;-69
2022/09/21 00:42:52;;;;;;;;;;;13.90;99.90;;;;;;5064589;28;19912;-70
2022/09/21 00:45:21;;;;;;;;;;;13.90;99.90;;;;;;5065548;28;19920;-69
2022/09/21 00:47:48;;;;;;;;;;;13.90;99.90;;;;;;5064689;28;20337;-69
2022/09/21 00:50:16;;;;;;;;;;;13.90;99.90;;;;;;5067522;28;19913;-69
2022/09/21 00:52:43;;;;;;;;;;;13.90;99.90;;;;;;5066044;28;20366;-69
2022/09/21 00:55:13;;;;;;;;;;;14.00;99.90;;;;;;5062404;28;19936;-68
2022/09/21 00:57:38;;;;;;;;;;;14.00;99.90;;;;;;5063581;28;19937;-69
2022/09/21 01:00:07;;;;;;;;;;;14.10;99.90;;;;;;5062392;28;20279;-68
2022/09/21 01:02:34;;;;;;;;;;;14.10;99.90;;;;;;5063962;28;19919;-69
2022/09/21 01:04:59;;;;;;;;;;;14.10;99.90;;;;;;5066995;28;19917;-69
2022/09/21 01:07:27;;;;;;;;;;;14.10;99.90;;;;;;5067918;28;20528;-68
2022/09/21 01:09:58;;;;;;;;;;;14.00;99.90;;;;;;5069625;28;19916;-69
2022/09/21 01:12:42;;;;;;;;;;;14.00;99.90;;;;;;5049818;28;19917;-68
2022/09/21 01:15:08;;;;;;;;;;;14.00;99.90;;;;;;5072166;28;20036;-68
2022/09/21 01:17:33;;;;;;;;;;;14.00;99.90;;;;;;5069804;28;19912;-67
2022/09/21 01:19:59;;;;;;;;;;;13.90;99.90;;;;;;5066909;28;19947;-68
2022/09/21 01:22:31;;;;;;;;;;;13.90;99.90;;;;;;5065131;28;20264;-69
2022/09/21 01:25:15;;;;;;;;;;;13.90;99.90;;;;;;5067482;28;19916;-69
2022/09/21 01:27:52;;;;;;;;;;;13.90;99.90;;;;;;5066206;28;19924;-69
2022/09/21 01:30:20;;;;;;;;;;;13.90;99.90;;;;;;5066997;28;19916;-68
2022/09/21 01:32:55;;;;;;;;;;;13.90;99.90;;;;;;5065647;28;19916;-68
2022/09/21 01:35:26;;;;;;;;;;;13.90;99.90;;;;;;5064882;28;19921;-68
2022/09/21 01:37:55;;;;;;;;;;;13.90;99.90;;;;;;5065182;28;19923;-67
2022/09/21 01:40:30;;;;;;;;;;;13.90;99.90;;;;;;5065347;28;20299;-69
2022/09/21 01:42:56;;;;;;;;;;;14.00;99.90;;;;;;5048428;28;20370;-68
2022/09/21 01:45:51;;;;;;;;;;;14.00;99.90;;;;;;5065620;28;19927;-69
2022/09/21 01:48:18;;;;;;;;;;;14.10;99.90;;;;;;5048059;28;19913;-68
2022/09/21 01:50:46;;;;;;;;;;;14.10;99.90;;;;;;5047757;28;20354;-69
2022/09/21 01:53:16;;;;;;;;;;;14.10;99.90;;;;;;5064832;28;19912;-68
2022/09/21 01:55:45;;;;;;;;;;;14.10;99.90;;;;;;5064497;28;20282;-68
2022/09/21 01:58:16;;;;;;;;;;;14.20;99.90;;;;;;5065510;28;19913;-68
2022/09/21 02:00:44;;;;;;;;;;;14.20;99.90;;;;;;5051365;28;19917;-70
2022/09/21 02:03:17;;;;;;;;;;;14.20;99.90;;;;;;5071406;28;19926;-69
2022/09/21 02:05:42;;;;;;;;;;;14.30;99.90;;;;;;5066596;28;19913;-69
2022/09/21 02:08:09;;;;;;;;;;;14.30;99.90;;;;;;5067985;28;20433;-69
2022/09/21 02:10:41;;;;;;;;;;;14.30;99.90;;;;;;5069116;28;19952;-69
2022/09/21 02:13:06;;;;;;;;;;;14.30;99.90;;;;;;5070910;28;19966;-69
2022/09/21 02:15:52;;;;;;;;;;;14.30;99.90;;;;;;5068201;28;19932;-68
2022/09/21 02:18:39;;;;;;;;;;;14.30;99.90;;;;;;5054745;28;20379;-69
2022/09/21 02:21:08;;;;;;;;;;;14.30;99.90;;;;;;5066196;28;19912;-69
2022/09/21 02:23:42;;;;;;;;;;;14.20;99.90;;;;;;5068805;28;19913;-69
2022/09/21 02:26:17;;;;;;;;;;;14.20;99.90;;;;;;5068858;28;19913;-69
2022/09/21 02:28:49;;;;;;;;;;;14.20;99.90;;;;;;5068081;28;19970;-69
2022/09/21 02:31:21;;;;;;;;;;;14.30;99.90;;;;;;5069440;28;19920;-68
2022/09/21 02:34:00;;;;;;;;;;;14.30;99.90;;;;;;5071054;28;20056;-68
2022/09/21 02:36:44;;;;;;;;;;;14.20;99.90;;;;;;5066806;28;19935;-69
2022/09/21 02:39:15;;;;;;;;;;;14.20;99.90;;;;;;5047959;28;19921;-69
2022/09/21 02:41:51;;;;;;;;;;;14.20;99.90;;;;;;5065887;28;20386;-69
2022/09/21 02:44:19;;;;;;;;;;;14.30;99.90;;;;;;5069276;28;19913;-68
2022/09/21 02:46:53;;;;;;;;;;;14.20;99.90;;;;;;5065418;28;19909;-70
2022/09/21 02:49:20;;;;;;;;;;;14.20;99.90;;;;;;5067421;28;19913;-68
2022/09/21 02:51:48;;;;;;;;;;;14.10;99.90;;;;;;5067856;28;19913;-68
2022/09/21 02:54:16;;;;;;;;;;;14.00;99.90;;;;;;5069371;28;20023;-68
2022/09/21 02:56:42;;;;;;;;;;;14.10;99.90;;;;;;5068250;28;19999;-68
2022/09/21 02:59:09;;;;;;;;;;;14.00;99.90;;;;;;5050970;28;19916;-68
2022/09/21 03:01:35;;;;;;;;;;;14.00;99.90;;;;;;5067292;28;19914;-68
2022/09/21 03:04:01;;;;;;;;;;;13.90;99.90;;;;;;5052870;28;19920;-69
2022/09/21 03:06:27;;;;;;;;;;;13.90;99.90;;;;;;5066950;28;20705;-69
2022/09/21 03:08:52;;;;;;;;;;;14.00;99.90;;;;;;5049061;28;20014;-69
2022/09/21 03:11:18;;;;;;;;;;;13.90;99.90;;;;;;5068560;28;20011;-69
2022/09/21 03:13:44;;;;;;;;;;;13.90;99.90;;;;;;5064351;28;19976;-68
2022/09/21 03:16:10;;;;;;;;;;;14.00;99.90;;;;;;5063618;28;19929;-68
2022/09/21 03:18:36;;;;;;;;;;;13.90;99.90;;;;;;5069616;28;19924;-69
2022/09/21 03:21:02;;;;;;;;;;;13.90;99.90;;;;;;5066374;28;20267;-69
2022/09/21 03:23:28;;;;;;;;;;;13.90;99.90;;;;;;5066842;28;20114;-69
2022/09/21 03:25:53;;;;;;;;;;;13.90;99.90;;;;;;5066696;28;20366;-69
2022/09/21 03:28:19;;;;;;;;;;;13.80;99.90;;;;;;5068123;28;19923;-73
2022/09/21 03:30:46;;;;;;;;;;;13.80;99.90;;;;;;5065868;28;19946;-69
2022/09/21 03:33:12;;;;;;;;;;;13.80;99.90;;;;;;5068025;28;19920;-69
2022/09/21 03:35:38;;;;;;;;;;;13.80;99.90;;;;;;5049636;28;19924;-69
2022/09/21 03:38:04;;;;;;;;;;;13.80;99.90;;;;;;5065759;28;19916;-68
2022/09/21 03:40:30;;;;;;;;;;;13.80;99.90;;;;;;5065308;28;19935;-69
2022/09/21 03:42:55;;;;;;;;;;;13.70;99.90;;;;;;5066682;28;19927;-69
2022/09/21 03:45:21;;;;;;;;;;;13.70;99.90;;;;;;5063809;28;19943;-68
2022/09/21 03:47:47;;;;;;;;;;;13.70;99.90;;;;;;5069372;28;20430;-68
2022/09/21 03:50:13;;;;;;;;;;;13.80;99.90;;;;;;5064618;28;19931;-68
2022/09/21 03:52:39;;;;;;;;;;;13.70;99.90;;;;;;5063610;28;19920;-68
2022/09/21 03:55:05;;;;;;;;;;;13.70;99.90;;;;;;5045055;28;19993;-69
2022/09/21 03:57:31;;;;;;;;;;;13.70;99.90;;;;;;5069391;28;21861;-68
2022/09/21 03:59:57;;;;;;;;;;;13.70;99.90;;;;;;5068761;28;19968;-68
2022/09/21 04:02:22;;;;;;;;;;;13.70;99.90;;;;;;5065048;28;19912;-69
2022/09/21 04:04:48;;;;;;;;;;;13.70;99.90;;;;;;5068376;28;19916;-69
2022/09/21 04:07:14;;;;;;;;;;;13.70;99.90;;;;;;5066583;28;19913;-69
2022/09/21 04:09:40;;;;;;;;;;;13.70;99.90;;;;;;5066021;28;20179;-68
2022/09/21 04:12:06;;;;;;;;;;;13.80;99.90;;;;;;5063089;28;19991;-69
2022/09/21 04:14:32;;;;;;;;;;;13.80;99.90;;;;;;5068247;28;20061;-69
2022/09/21 04:16:57;;;;;;;;;;;13.80;99.90;;;;;;5050255;28;19983;-68
2022/09/21 04:19:23;;;;;;;;;;;13.90;99.90;;;;;;5048181;28;20322;-69
2022/09/21 04:21:50;;;;;;;;;;;13.90;99.90;;;;;;5067191;28;20238;-68
2022/09/21 04:24:18;;;;;;;;;;;13.90;99.90;;;;;;5063562;28;20359;-69
2022/09/21 04:26:44;;;;;;;;;;;13.90;99.90;;;;;;5067558;28;20046;-69
2022/09/21 04:29:10;;;;;;;;;;;13.80;99.90;;;;;;5062340;28;19913;-68
2022/09/21 04:31:36;;;;;;;;;;;13.90;99.90;;;;;;5066950;28;19920;-68
2022/09/21 04:34:01;;;;;;;;;;;13.90;99.90;;;;;;5063779;28;19913;-68
2022/09/21 04:36:27;;;;;;;;;;;13.90;99.90;;;;;;5066096;28;19927;-68
2022/09/21 04:38:53;;;;;;;;;;;14.00;99.90;;;;;;5048776;28;19912;-68
2022/09/21 04:41:18;;;;;;;;;;;13.90;99.90;;;;;;5064067;28;19927;-69
2022/09/21 04:43:44;;;;;;;;;;;13.90;99.90;;;;;;5063364;28;20600;-68
2022/09/21 04:46:11;;;;;;;;;;;13.80;99.90;;;;;;5064504;28;19974;-68
2022/09/21 04:48:37;;;;;;;;;;;13.70;99.90;;;;;;5062659;28;19916;-69
2022/09/21 04:51:03;;;;;;;;;;;13.60;99.90;;;;;;5068995;28;19936;-69
2022/09/21 04:53:29;;;;;;;;;;;13.60;99.90;;;;;;5067480;28;20212;-69
2022/09/21 04:55:54;;;;;;;;;;;13.50;99.90;;;;;;5065678;28;19920;-69
2022/09/21 04:58:20;;;;;;;;;;;13.40;99.90;;;;;;5066892;28;19917;-69
2022/09/21 05:00:50;;;;;;;;;;;13.20;99.90;;;;;;5064852;28;20378;-68
2022/09/21 05:03:16;;;;;;;;;;;13.20;99.90;;;;;;5067668;28;20039;-68
2022/09/21 05:05:48;;;;;;;;;;;13.10;99.90;;;;;;5064933;28;19993;-69
2022/09/21 05:08:14;;;;;;;;;;;13.10;99.90;;;;;;5067023;28;20598;-69
2022/09/21 05:10:40;;;;;;;;;;;13.00;99.90;;;;;;5060790;28;19919;-68
2022/09/21 05:13:06;;;;;;;;;;;12.90;99.90;;;;;;5055975;28;19913;-68
2022/09/21 05:15:31;;;;;;;;;;;12.70;99.90;;;;;;5059198;28;19920;-68
2022/09/21 05:17:57;;;;;;;;;;;12.70;99.90;;;;;;5060323;28;19913;-69
2022/09/21 05:20:23;;;;;;;;;;;12.60;99.90;;;;;;5063776;28;20363;-69
2022/09/21 05:22:48;;;;;;;;;;;12.60;99.90;;;;;;5065212;28;19954;-68
2022/09/21 05:25:14;;;;;;;;;;;12.50;99.90;;;;;;5046876;28;19939;-68
2022/09/21 05:27:39;;;;;;;;;;;12.60;99.90;;;;;;5066621;28;19916;-69
2022/09/21 05:30:05;;;;;;;;;;;12.60;99.90;;;;;;5062959;28;19928;-69
2022/09/21 05:32:30;;;;;;;;;;;12.60;99.90;;;;;;5064417;28;19919;-69
2022/09/21 05:35:02;;;;;;;;;;;12.50;99.90;;;;;;5067164;28;19916;-69
2022/09/21 05:37:37;;;;;;;;;;;12.60;99.90;;;;;;5068512;28;19916;-69
2022/09/21 05:40:03;;;;;;;;;;;12.40;99.90;;;;;;5066684;28;20055;-69
2022/09/21 05:42:28;;;;;;;;;;;12.40;99.90;;;;;;5068312;28;20393;-68
2022/09/21 05:44:54;;;;;;;;;;;12.40;99.90;;;;;;5063458;28;20659;-68
2022/09/21 05:47:19;;;;;;;;;;;12.40;99.90;;;;;;5063445;28;19940;-68
2022/09/21 05:50:04;;;;;;;;;;;12.30;99.90;;;;;;5061353;28;19924;-69
2022/09/21 05:52:30;;;;;;;;;;;12.30;99.90;;;;;;5062703;28;19920;-69
2022/09/21 05:54:58;;;;;;;;;;;12.30;99.90;;;;;;5060038;28;19913;-69
2022/09/21 05:57:32;;;;;;;;;;;12.40;99.90;;;;;;5065020;28;19955;-68
2022/09/21 06:00:02;;;;;;;;;;;12.50;99.90;;;;;;5056280;28;19917;-68
2022/09/21 06:02:40;;;;;;;;;;;12.50;99.90;;;;;;5059490;28;19913;-69
2022/09/21 06:05:13;;;;;;;;;;;12.70;99.90;;;;;;5059872;28;19913;-68
2022/09/21 06:07:40;;;;;;;;;;;12.70;99.90;;;;;;5063003;28;19920;-69
2022/09/21 06:10:06;;;;;;;;;;;12.80;99.90;;;;;;5062984;28;20045;-69
2022/09/21 06:12:32;;;;;;;;;;;12.60;99.90;;;;;;5059787;28;19923;-69
2022/09/21 06:14:57;;;;;;;;;;;12.60;99.90;;;;;;5060904;28;20282;-68
2022/09/21 06:17:26;;;;;;;;;;;12.50;99.90;;;;;;5065225;28;19920;-69
2022/09/21 06:19:52;;;;;;;;;;;12.50;99.90;;;;;;5060289;28;19935;-69
2022/09/21 06:22:17;;;;;;;;;;;12.40;99.90;;;;;;5058220;28;20222;-69
2022/09/21 06:24:43;;;;;;;;;;;12.40;99.90;;;;;;5059672;28;20342;-69
2022/09/21 06:27:08;;;;;;;;;;;12.50;99.90;;;;;;5062476;28;19920;-68
2022/09/21 06:29:34;;;;;;;;;;;12.50;99.90;;;;;;5056657;28;19955;-68
2022/09/21 06:32:00;;;;;;;;;;;12.50;99.90;;;;;;5060562;28;19948;-68
2022/09/21 06:34:26;;;;;;;;;;;12.50;99.90;;;;;;5059142;28;19955;-69
2022/09/21 06:36:51;;;;;;;;;;;12.60;99.90;;;;;;5062388;28;19963;-68
2022/09/21 06:39:17;;;;;;;;;;;12.70;99.90;;;;;;5061928;28;19916;-68
2022/09/21 06:41:42;;;;;;;;;;;12.70;99.90;;;;;;5067796;28;19919;-69
2022/09/21 06:44:08;;;;;;;;;;;12.60;99.90;;;;;;5060494;28;19967;-68
2022/09/21 06:46:33;;;;;;;;;;;12.60;99.90;;;;;;5063339;28;19913;-68
2022/09/21 06:48:59;;;;;;;;;;;12.60;99.90;;;;;;5071089;28;21151;-69
2022/09/21 06:51:24;;;;;;;;;;;12.50;99.90;;;;;;5074241;28;19931;-68
2022/09/21 06:53:54;;;;;;;;;;;12.50;99.90;;;;;;5069380;28;19927;-68
2022/09/21 06:56:20;;;;;;;;;;;12.50;99.90;;;;;;5056463;28;19927;-69
2022/09/21 06:58:46;;;;;;;;;;;12.50;99.90;;;;;;5077325;28;20359;-69
2022/09/21 07:01:13;;;;;;;;;;;12.50;99.90;;;;;;5072404;28;19949;-70
2022/09/21 07:03:39;;;;;;;;;;;12.60;99.90;;;;;;5065341;28;19966;-73
2022/09/21 07:06:05;;;;;;;;;;;12.60;99.90;;;;;;5069931;28;19912;-67
2022/09/21 07:08:31;;;;;;;;;;;12.60;99.90;;;;;;5080534;28;20337;-70
2022/09/21 07:10:57;;;;;;;;;;;12.60;99.90;;;;;;5056225;28;19917;-67
2022/09/21 07:13:24;;;;;;;;;;;12.70;99.90;;;;;;5071417;28;19913;-69
2022/09/21 07:15:49;;;;;;;;;;;12.70;99.90;;;;;;5062012;28;19928;-68
2022/09/21 07:18:16;;;;;;;;;;;12.70;99.90;;;;;;5069832;28;19920;-69
2022/09/21 07:20:42;;;;;;;;;;;12.80;99.90;;;;;;5066986;28;19920;-68
2022/09/21 07:23:11;;;;;;;;;;;12.90;99.90;;;;;;5070106;28;19919;-69
2022/09/21 07:25:36;;;;;;;;;;;13.00;99.90;;;;;;5064559;28;19920;-68
2022/09/21 07:28:02;;;;;;;;;;;13.00;99.90;;;;;;5061251;28;19978;-69
2022/09/21 07:30:28;;;;;;;;;;;13.10;99.90;;;;;;5066610;28;19912;-68
2022/09/21 07:32:53;;;;;;;;;;;13.10;99.90;;;;;;5070603;28;19920;-69
2022/09/21 07:35:19;;;;;;;;;;;13.30;99.90;;;;;;5066914;28;19955;-67
2022/09/21 07:37:44;;;;;;;;;;;13.40;99.90;;;;;;5069385;28;19935;-68
2022/09/21 07:40:10;;;;;;;;;;;13.50;99.90;;;;;;5069832;28;19916;-69
2022/09/21 07:42:35;;;;;;;;;;;13.50;99.90;;;;;;5069855;28;19913;-68
2022/09/21 07:45:01;;;;;;;;;;;13.50;99.90;;;;;;5070947;28;19913;-69
2022/09/21 07:47:27;;;;;;;;;;;13.50;99.90;;;;;;5052747;28;19993;-67
2022/09/21 07:49:52;;;;;;;;;;;13.70;99.90;;;;;;5063043;28;20255;-69
2022/09/21 07:52:18;;;;;;;;;;;13.80;99.90;;;;;;5050838;28;19959;-68
2022/09/21 07:54:44;;;;;;;;;;;14.00;99.90;;;;;;5066627;28;19912;-68
2022/09/21 07:59:57;;;;;;;;;;;14.10;99.90;;;;;;5067522;28;20320;-68
2022/09/21 08:02:22;;;;;;;;;;;14.20;99.90;;;;;;5066980;28;20381;-68
2022/09/21 08:04:48;;;;;;;;;;;14.30;99.90;;;;;;5069783;28;19912;-68
2022/09/21 08:07:14;;;;;;;;;;;14.30;99.90;;;;;;5069056;28;19985;-69
2022/09/21 08:09:40;;;;;;;;;;;14.40;99.90;;;;;;5068123;28;19920;-68
2022/09/21 08:12:07;;;;;;;;;;;14.50;99.90;;;;;;5067992;28;20180;-67
2022/09/21 08:14:34;;;;;;;;;;;14.70;99.90;;;;;;5061585;28;19912;-68
2022/09/21 08:17:00;;;;;;;;;;;14.80;99.90;;;;;;5067229;28;19952;-68
2022/09/21 08:19:26;;;;;;;;;;;15.00;99.90;;;;;;5069228;28;19997;-70
2022/09/21 08:21:52;;;;;;;;;;;15.10;99.90;;;;;;5069416;28;20042;-70
2022/09/21 08:24:18;;;;;;;;;;;15.20;99.90;;;;;;5068454;28;19991;-68
2022/09/21 08:26:44;;;;;;;;;;;15.20;99.90;;;;;;5071413;28;20354;-68
2022/09/21 08:29:12;;;;;;;;;;;15.40;99.90;;;;;;5068506;28;19912;-69
2022/09/21 08:31:37;;;;;;;;;;;15.60;99.90;;;;;;5069478;28;20342;-68
2022/09/21 08:34:03;;;;;;;;;;;15.80;99.90;;;;;;5065973;28;19920;-68
2022/09/21 08:36:28;;;;;;;;;;;15.90;99.90;;;;;;5048267;28;19924;-69
2022/09/21 08:38:55;;;;;;;;;;;16.10;99.90;;;;;;5064982;28;19912;-68
2022/09/21 08:41:27;;;;;;;;;;;16.20;99.90;;;;;;5069911;28;20136;-67
2022/09/21 08:43:59;;;;;;;;;;;16.30;99.90;;;;;;5070180;28;19912;-68
2022/09/21 08:46:28;;;;;;;;;;;16.50;99.90;;;;;;5069827;28;19917;-67
2022/09/21 08:48:59;;;;;;;;;;;16.60;99.90;;;;;;5071753;28;20014;-68
2022/09/21 08:51:27;;;;;;;;;;;16.60;99.90;;;;;;5052653;28;19913;-68
2022/09/21 08:53:55;;;;;;;;;;;16.70;99.90;;;;;;5071662;28;19918;-69
2022/09/21 08:56:21;;;;;;;;;;;16.70;99.90;;;;;;5068988;28;20359;-69
2022/09/21 08:58:47;;;;;;;;;;;16.80;99.90;;;;;;5053346;28;19939;-69
2022/09/21 09:01:19;;;;;;;;;;;17.00;99.90;;;;;;5071236;28;20341;-68
2022/09/21 09:03:47;;;;;;;;;;;17.00;99.90;;;;;;5069742;28;19974;-69
2022/09/21 09:06:24;;;;;;;;;;;17.10;99.90;;;;;;5070583;28;19913;-69
2022/09/21 09:08:57;;;;;;;;;;;17.20;99.90;;;;;;5070012;28;19999;-69
2022/09/21 09:11:22;;;;;;;;;;;17.30;99.90;;;;;;5068573;28;19947;-68
2022/09/21 09:14:12;;;;;;;;;;;17.40;99.90;;;;;;5060691;28;19955;-69
2022/09/21 09:16:54;;;;;;;;;;;17.40;99.90;;;;;;5068474;28;19974;-69
2022/09/21 09:19:34;;;;;;;;;;;17.70;99.90;;;;;;5069783;28;19916;-68
2022/09/21 09:22:03;;;;;;;;;;;17.90;99.90;;;;;;5058772;28;19963;-69
2022/09/21 09:24:40;;;;;;;;;;;18.00;99.90;;;;;;5058829;28;19938;-69
2022/09/21 09:27:14;;;;;;;;;;;18.10;99.90;;;;;;5060842;28;19916;-69
2022/09/21 09:29:42;;;;;;;;;;;18.10;99.90;;;;;;5060033;28;19913;-68
2022/09/21 09:32:13;;;;;;;;;;;18.30;99.90;;;;;;5056519;28;19995;-69
2022/09/21 09:34:41;;;;;;;;;;;18.30;99.90;;;;;;5067280;28;20413;-68
2022/09/21 09:37:10;;;;;;;;;;;18.60;99.90;;;;;;5065496;28;19925;-69
2022/09/21 09:39:36;;;;;;;;;;;18.70;99.90;;;;;;5064113;28;19924;-68
2022/09/21 09:42:09;;;;;;;;;;;18.90;99.90;;;;;;5068028;28;19920;-68
2022/09/21 09:44:44;;;;;;;;;;;19.00;99.90;;;;;;5064477;28;19916;-68
2022/09/21 09:47:27;;;;;;;;;;;18.90;99.90;;;;;;5061008;28;20156;-69
2022/09/21 09:50:07;;;;;;;;;;;19.20;99.90;;;;;;5067430;28;19986;-68
2022/09/21 09:52:33;;;;;;;;;;;19.20;83.80;;;;;;5047995;28;19913;-68
2022/09/21 09:54:59;;;;;;;;;;;19.40;78.80;;;;;;5069323;28;19917;-69
2022/09/21 09:57:29;;;;;;;;;;;19.70;76.60;;;;;;5066797;28;19939;-69
2022/09/21 09:59:58;;;;;;;;;;;19.90;74.00;;;;;;5066038;28;19979;-68
2022/09/21 10:02:26;;;;;;;;;;;20.20;69.60;;;;;;5060378;28;20406;-68
2022/09/21 10:05:04;;;;;;;;;;;20.20;68.40;;;;;;5068330;28;20014;-68
2022/09/21 10:07:34;;;;;;;;;;;20.20;67.10;;;;;;5062765;28;19913;-69
2022/09/21 10:09:59;;;;;;;;;;;20.30;68.10;;;;;;5069158;28;19920;-68
2022/09/21 10:12:26;;;;;;;;;;;20.60;67.20;;;;;;5041707;28;19923;-68
2022/09/21 10:14:53;;;;;;;;;;;20.60;66.20;;;;;;5060175;28;19920;-68
2022/09/21 10:17:19;;;;;;;;;;;20.60;65.90;;;;;;5063616;28;19921;-68
2022/09/21 10:19:45;;;;;;;;;;;20.50;65.90;;;;;;5071655;28;19912;-68
2022/09/21 10:22:17;;;;;;;;;;;20.50;65.60;;;;;;5067212;28;20390;-68
2022/09/21 10:24:47;;;;;;;;;;;20.40;65.70;;;;;;5070797;28;19912;-68
2022/09/21 10:27:14;;;;;;;;;;;20.20;65.50;;;;;;5072719;28;19917;-68
2022/09/21 10:29:47;;;;;;;;;;;20.20;62.90;;;;;;5071024;28;20442;-67
2022/09/21 10:32:12;;;;;;;;;;;20.10;62.90;;;;;;5073599;28;19913;-68
2022/09/21 10:34:39;;;;;;;;;;;20.30;65.20;;;;;;5072080;28;19938;-68
2022/09/21 10:37:23;;;;;;;;;;;20.60;65.00;;;;;;5069195;28;19965;-68
2022/09/21 10:39:48;;;;;;;;;;;20.70;63.50;;;;;;5071109;28;19952;-68
2022/09/21 10:42:16;;;;;;;;;;;20.90;64.10;;;;;;5068588;28;20417;-68
2022/09/21 10:44:43;;;;;;;;;;;21.10;63.10;;;;;;5064127;28;20271;-67
2022/09/21 10:47:23;;;;;;;;;;;21.00;62.10;;;;;;5070968;28;20015;-68
2022/09/21 10:49:53;;;;;;;;;;;20.90;63.80;;;;;;5067714;28;19947;-68
2022/09/21 10:52:19;;;;;;;;;;;20.80;64.80;;;;;;5072194;28;19920;-69
2022/09/21 10:54:47;;;;;;;;;;;21.00;64.30;;;;;;5070200;28;19939;-68
2022/09/21 10:57:15;;;;;;;;;;;21.10;64.80;;;;;;5051435;28;19946;-68
2022/09/21 10:59:41;;;;;;;;;;;21.10;63.90;;;;;;5070757;28;20428;-67
2022/09/21 11:02:30;;;;;;;;;;;21.10;63.30;;;;;;5065533;28;19912;-68
2022/09/21 11:04:58;;;;;;;;;;;21.10;63.50;;;;;;5041007;28;20385;-67
2022/09/21 11:07:27;;;;;;;;;;;21.30;63.40;;;;;;5065732;28;20050;-67
2022/09/21 11:09:57;;;;;;;;;;;21.50;59.50;;;;;;5071575;28;20394;-69
2022/09/21 11:12:32;;;;;;;;;;;21.30;61.50;;;;;;5073168;28;20618;-68
2022/09/21 11:15:19;;;;;;;;;;;21.30;57.20;;;;;;5068853;28;19998;-68
2022/09/21 11:17:51;;;;;;;;;;;21.40;54.50;;;;;;5066063;28;19917;-66
2022/09/21 11:20:25;;;;;;;;;;;21.50;54.90;;;;;;5067835;28;21251;-68
2022/09/21 11:23:20;;;;;;;;;;;21.60;53.40;;;;;;5067486;28;19912;-68
2022/09/21 11:25:49;;;;;;;;;;;21.60;53.10;;;;;;5044937;28;19923;-69
2022/09/21 11:28:24;;;;;;;;;;;21.40;51.80;;;;;;5070428;28;19996;-67
2022/09/21 11:31:08;;;;;;;;;;;21.40;51.80;;;;;;5067441;28;19921;-68
2022/09/21 11:33:37;;;;;;;;;;;21.30;52.50;;;;;;5074623;28;19919;-68
2022/09/21 11:36:02;;;;;;;;;;;21.10;52.20;;;;;;5055550;28;20319;-68
2022/09/21 11:38:49;;;;;;;;;;;21.20;52.70;;;;;;5075005;28;19923;-69
2022/09/21 11:41:35;;;;;;;;;;;21.10;53.70;;;;;;5071343;28;19921;-68
2022/09/21 11:44:18;;;;;;;;;;;20.70;54.60;;;;;;5073932;28;19927;-67
2022/09/21 11:46:56;;;;;;;;;;;20.50;55.10;;;;;;5066214;28;19919;-69
2022/09/21 11:49:26;;;;;;;;;;;20.50;55.80;;;;;;5075785;28;20612;-69
2022/09/21 11:52:02;;;;;;;;;;;20.60;55.40;;;;;;5071847;28;19936;-67
2022/09/21 11:54:46;;;;;;;;;;;20.50;55.10;;;;;;5071054;28;19912;-69
2022/09/21 11:57:24;;;;;;;;;;;20.40;54.80;;;;;;5064418;28;19968;-68
2022/09/21 11:59:50;;;;;;;;;;;20.30;55.40;;;;;;5068698;28;20000;-68
2022/09/21 12:02:15;;;;;;;;;;;20.20;55.90;;;;;;5069055;28;19951;-68
2022/09/21 12:04:47;;;;;;;;;;;20.20;56.30;;;;;;5065057;28;19917;-69
2022/09/21 12:07:24;;;;;;;;;;;20.20;57.10;;;;;;5066124;28;19912;-68
2022/09/21 12:09:50;;;;;;;;;;;20.30;56.70;;;;;;5067961;28;19912;-69
2022/09/21 12:12:42;;;;;;;;;;;20.40;54.70;;;;;;5067229;28;19921;-68
2022/09/21 12:15:21;;;;;;;;;;;20.40;54.50;;;;;;5035712;28;19912;-69
2022/09/21 12:17:58;;;;;;;;;;;20.30;54.80;;;;;;5072215;28;19912;-68
2022/09/21 12:20:30;;;;;;;;;;;20.30;55.30;;;;;;5071311;28;19916;-69
2022/09/21 12:22:58;;;;;;;;;;;20.40;54.80;;;;;;5071502;28;19913;-67
2022/09/21 12:25:35;;;;;;;;;;;20.60;55.10;;;;;;5078258;28;19919;-69
2022/09/21 12:28:17;;;;;;;;;;;20.60;54.90;;;;;;5073712;28;19920;-69
2022/09/21 12:30:45;;;;;;;;;;;20.60;54.80;;;;;;5065228;28;20329;-69
2022/09/21 12:33:24;;;;;;;;;;;20.60;54.60;;;;;;5074557;28;19913;-68
2022/09/21 12:35:53;;;;;;;;;;;20.60;54.00;;;;;;5067616;28;19928;-67
2022/09/21 12:38:25;;;;;;;;;;;20.50;54.40;;;;;;5069091;28;19912;-67
2022/09/21 12:40:54;;;;;;;;;;;20.40;54.30;;;;;;5070983;28;19974;-69
2022/09/21 12:43:39;;;;;;;;;;;20.30;55.40;;;;;;5062443;28;19970;-68
2022/09/21 12:46:04;;;;;;;;;;;20.30;55.10;;;;;;5066919;28;19912;-68
2022/09/21 12:48:31;;;;;;;;;;;20.40;54.70;;;;;;5057160;28;19916;-68
2022/09/21 12:51:00;;;;;;;;;;;20.60;54.30;;;;;;5068264;28;19943;-68
2022/09/21 12:53:29;;;;;;;;;;;20.80;54.50;;;;;;5075127;28;19912;-68
2022/09/21 12:56:13;;;;;;;;;;;21.10;54.20;;;;;;5078805;28;20259;-68
2022/09/21 12:58:44;;;;;;;;;;;21.30;54.00;;;;;;5075135;28;19920;-68
2022/09/21 13:01:39;;;;;;;;;;;21.50;53.40;;;;;;5073826;28;20282;-68
2022/09/21 13:04:20;;;;;;;;;;;21.50;53.00;;;;;;5053400;28;20360;-67
2022/09/21 13:06:46;;;;;;;;;;;21.30;52.90;;;;;;5069246;28;19959;-67
2022/09/21 13:09:13;;;;;;;;;;;21.10;53.40;;;;;;5067509;28;19913;-68
2022/09/21 13:11:55;;;;;;;;;;;20.90;53.70;;;;;;5065802;28;19913;-67
2022/09/21 13:14:23;;;;;;;;;;;20.80;53.40;;;;;;5070510;28;19912;-68
2022/09/21 13:17:02;;;;;;;;;;;20.80;53.60;;;;;;5073483;28;19930;-68
2022/09/21 13:19:30;;;;;;;;;;;20.90;53.60;;;;;;5072141;28;19913;-68
2022/09/21 13:22:18;;;;;;;;;;;21.00;54.10;;;;;;5066705;28;19913;-68
2022/09/21 13:24:56;;;;;;;;;;;20.90;54.40;;;;;;5070594;28;19909;-68
2022/09/21 13:27:21;;;;;;;;;;;20.90;54.50;;;;;;5054500;28;20320;-69
2022/09/21 13:30:07;;;;;;;;;;;20.80;54.40;;;;;;5073133;28;20022;-69
2022/09/21 13:32:50;;;;;;;;;;;20.80;55.00;;;;;;5069843;28;19920;-68
2022/09/21 13:35:34;;;;;;;;;;;21.00;54.80;;;;;;5069614;28;20518;-68
2022/09/21 13:38:18;;;;;;;;;;;21.10;54.10;;;;;;5069872;28;19916;-68
2022/09/21 13:40:49;;;;;;;;;;;21.20;54.00;;;;;;5070392;28;19917;-67
2022/09/21 13:43:15;;;;;;;;;;;21.50;53.60;;;;;;5072516;28;19924;-67
2022/09/21 13:45:41;;;;;;;;;;;21.80;53.10;;;;;;5071249;28;19912;-68
2022/09/21 13:48:19;;;;;;;;;;;22.10;51.90;;;;;;5067895;28;19917;-69
2022/09/21 13:50:44;;;;;;;;;;;22.10;51.10;;;;;;5075941;28;20342;-68
2022/09/21 13:53:22;;;;;;;;;;;22.10;51.30;;;;;;5073123;28;19921;-68
2022/09/21 13:55:49;;;;;;;;;;;22.00;50.90;;;;;;5076853;28;20007;-68
2022/09/21 13:58:21;;;;;;;;;;;21.90;51.00;;;;;;5072150;28;19920;-68
2022/09/21 14:00:54;;;;;;;;;;;21.90;51.70;;;;;;5073310;28;19923;-69
2022/09/21 14:03:24;;;;;;;;;;;21.60;53.00;;;;;;5076347;28;19912;-67
2022/09/21 14:06:01;;;;;;;;;;;21.60;52.70;;;;;;5078637;28;19912;-68
2022/09/21 14:08:36;;;;;;;;;;;21.40;52.40;;;;;;5072125;28;20319;-70
2022/09/21 14:11:06;;;;;;;;;;;21.20;53.20;;;;;;5063547;28;19924;-68
2022/09/21 14:13:32;;;;;;;;;;;21.10;54.10;;;;;;5079832;28;19979;-68
2022/09/21 14:16:16;;;;;;;;;;;21.20;54.30;;;;;;5074594;28;19975;-68
2022/09/21 14:18:45;;;;;;;;;;;21.40;53.90;;;;;;5076435;28;19912;-68
2022/09/21 14:21:16;;;;;;;;;;;21.70;53.40;;;;;;5075389;28;20679;-68
2022/09/21 14:24:00;;;;;;;;;;;21.90;52.70;;;;;;5061492;28;19919;-69
2022/09/21 14:26:38;;;;;;;;;;;22.10;51.90;;;;;;5075683;28;19975;-68
2022/09/21 14:29:24;;;;;;;;;;;22.40;51.10;;;;;;5082073;28;19916;-68
2022/09/21 14:31:52;;;;;;;;;;;22.30;50.90;;;;;;5072877;28;19935;-69
2022/09/21 14:34:22;;;;;;;;;;;22.20;50.30;;;;;;5079266;28;19923;-68